sensor_id;sensor_type;location;lat;lon;timestamp;temperature;humidity
63013;DHT22;62113;45.624;11.700;2023-06-01T00:00:14;23.80;48.60
63013;DHT22;62113;45.624;11.700;2023-06-01T00:02:40;23.80;48.70
63013;DHT22;62113;45.624;11.700;2023-06-01T00:05:06;23.80;48.80
63013;DHT22;62113;45.624;11.700;2023-06-01T00:07:32;23.70;48.80
63013;DHT22;62113;45.624;11.700;2023-06-01T00:09:59;23.70;48.90
63013;DHT22;62113;45.624;11.700;2023-06-01T00:12:25;23.70;48.90
63013;DHT22;62113;45.624;11.700;2023-06-01T00:14:51;23.70;48.90
63013;DHT22;62113;45.624;11.700;2023-06-01T00:17:16;23.70;49.00
63013;DHT22;62113;45.624;11.700;2023-06-01T00:19:42;23.70;49.10
63013;DHT22;62113;45.624;11.700;2023-06-01T00:22:10;23.60;49.10
63013;DHT22;62113;45.624;11.700;2023-06-01T00:24:36;23.60;49.30
63013;DHT22;62113;45.624;11.700;2023-06-01T00:27:02;23.60;49.40
63013;DHT22;62113;45.624;11.700;2023-06-01T00:29:27;23.50;49.30
63013;DHT22;62113;45.624;11.700;2023-06-01T00:31:53;23.50;49.20
63013;DHT22;62113;45.624;11.700;2023-06-01T00:34:18;23.50;49.20
63013;DHT22;62113;45.624;11.700;2023-06-01T00:36:44;23.50;49.30
63013;DHT22;62113;45.624;11.700;2023-06-01T00:39:09;23.40;49.40
63013;DHT22;62113;45.624;11.700;2023-06-01T00:41:35;23.40;49.50
63013;DHT22;62113;45.624;11.700;2023-06-01T00:44:00;23.40;49.40
63013;DHT22;62113;45.624;11.700;2023-06-01T00:46:26;23.40;49.70
63013;DHT22;62113;45.624;11.700;2023-06-01T00:48:52;23.30;49.60
63013;DHT22;62113;45.624;11.700;2023-06-01T00:51:18;23.30;49.70
63013;DHT22;62113;45.624;11.700;2023-06-01T00:53:44;23.30;49.80
63013;DHT22;62113;45.624;11.700;2023-06-01T00:56:09;23.20;49.90
63013;DHT22;62113;45.624;11.700;2023-06-01T00:58:37;23.20;50.10
63013;DHT22;62113;45.624;11.700;2023-06-01T01:01:03;23.20;50.00
63013;DHT22;62113;45.624;11.700;2023-06-01T01:03:28;23.20;49.90
63013;DHT22;62113;45.624;11.700;2023-06-01T01:09:06;23.00;50.30
63013;DHT22;62113;45.624;11.700;2023-06-01T01:11:32;23.00;50.40
63013;DHT22;62113;45.624;11.700;2023-06-01T01:16:54;23.00;50.50
63013;DHT22;62113;45.624;11.700;2023-06-01T01:19:35;22.90;50.70
63013;DHT22;62113;45.624;11.700;2023-06-01T01:24:56;22.90;51.10
63013;DHT22;62113;45.624;11.700;2023-06-01T01:27:36;22.80;51.20
63013;DHT22;62113;45.624;11.700;2023-06-01T01:30:03;22.80;51.40
63013;DHT22;62113;45.624;11.700;2023-06-01T01:32:32;22.80;51.20
63013;DHT22;62113;45.624;11.700;2023-06-01T01:34:58;22.70;51.40
63013;DHT22;62113;45.624;11.700;2023-06-01T01:37:23;22.70;51.50
63013;DHT22;62113;45.624;11.700;2023-06-01T01:39:49;22.70;51.50
63013;DHT22;62113;45.624;11.700;2023-06-01T01:42:15;22.70;51.40
63013;DHT22;62113;45.624;11.700;2023-06-01T01:44:40;22.70;51.80
63013;DHT22;62113;45.624;11.700;2023-06-01T01:50:05;22.60;51.40
63013;DHT22;62113;45.624;11.700;2023-06-01T01:52:35;22.60;51.30
63013;DHT22;62113;45.624;11.700;2023-06-01T01:55:03;22.60;51.50
63013;DHT22;62113;45.624;11.700;2023-06-01T01:57:30;22.60;51.50
63013;DHT22;62113;45.624;11.700;2023-06-01T01:59:58;22.50;51.60
63013;DHT22;62113;45.624;11.700;2023-06-01T02:02:23;22.40;51.50
63013;DHT22;62113;45.624;11.700;2023-06-01T02:04:49;22.50;51.50
63013;DHT22;62113;45.624;11.700;2023-06-01T02:07:15;22.50;51.70
63013;DHT22;62113;45.624;11.700;2023-06-01T02:09:41;22.50;51.60
63013;DHT22;62113;45.624;11.700;2023-06-01T02:12:07;22.40;51.80
63013;DHT22;62113;45.624;11.700;2023-06-01T02:14:33;22.40;52.10
63013;DHT22;62113;45.624;11.700;2023-06-01T02:16:58;22.40;51.90
63013;DHT22;62113;45.624;11.700;2023-06-01T02:19:26;22.40;51.80
63013;DHT22;62113;45.624;11.700;2023-06-01T02:21:51;22.30;51.70
63013;DHT22;62113;45.624;11.700;2023-06-01T02:24:17;22.30;51.90
63013;DHT22;62113;45.624;11.700;2023-06-01T02:26:43;22.30;51.80
63013;DHT22;62113;45.624;11.700;2023-06-01T02:29:08;22.30;52.00
63013;DHT22;62113;45.624;11.700;2023-06-01T02:31:34;22.30;51.90
63013;DHT22;62113;45.624;11.700;2023-06-01T02:34:01;22.30;52.00
63013;DHT22;62113;45.624;11.700;2023-06-01T02:36:27;22.20;52.20
63013;DHT22;62113;45.624;11.700;2023-06-01T02:38:54;22.20;52.20
63013;DHT22;62113;45.624;11.700;2023-06-01T02:41:20;22.20;51.90
63013;DHT22;62113;45.624;11.700;2023-06-01T02:43:46;22.20;52.20
63013;DHT22;62113;45.624;11.700;2023-06-01T02:46:12;22.20;52.40
63013;DHT22;62113;45.624;11.700;2023-06-01T02:48:38;22.20;52.10
63013;DHT22;62113;45.624;11.700;2023-06-01T02:51:03;22.10;52.50
63013;DHT22;62113;45.624;11.700;2023-06-01T02:53:29;22.10;52.40
63013;DHT22;62113;45.624;11.700;2023-06-01T02:55:55;22.10;52.30
63013;DHT22;62113;45.624;11.700;2023-06-01T02:58:20;22.00;52.20
63013;DHT22;62113;45.624;11.700;2023-06-01T03:00:46;22.00;52.20
63013;DHT22;62113;45.624;11.700;2023-06-01T03:03:12;22.00;52.30
63013;DHT22;62113;45.624;11.700;2023-06-01T03:05:38;22.00;52.30
63013;DHT22;62113;45.624;11.700;2023-06-01T03:08:04;22.00;52.30
63013;DHT22;62113;45.624;11.700;2023-06-01T03:10:31;21.90;52.20
63013;DHT22;62113;45.624;11.700;2023-06-01T03:12:57;21.90;52.10
63013;DHT22;62113;45.624;11.700;2023-06-01T03:15:22;21.90;52.10
63013;DHT22;62113;45.624;11.700;2023-06-01T03:17:48;21.90;52.10
63013;DHT22;62113;45.624;11.700;2023-06-01T03:20:13;21.90;52.30
63013;DHT22;62113;45.624;11.700;2023-06-01T03:22:42;21.90;52.20
63013;DHT22;62113;45.624;11.700;2023-06-01T03:25:08;21.90;52.30
63013;DHT22;62113;45.624;11.700;2023-06-01T03:27:34;21.90;52.50
63013;DHT22;62113;45.624;11.700;2023-06-01T03:30:00;21.80;52.40
63013;DHT22;62113;45.624;11.700;2023-06-01T03:32:26;21.80;52.60
63013;DHT22;62113;45.624;11.700;2023-06-01T03:34:52;21.80;52.70
63013;DHT22;62113;45.624;11.700;2023-06-01T03:37:17;21.80;52.50
63013;DHT22;62113;45.624;11.700;2023-06-01T03:39:43;21.80;52.30
63013;DHT22;62113;45.624;11.700;2023-06-01T03:42:08;21.80;52.30
63013;DHT22;62113;45.624;11.700;2023-06-01T03:44:34;21.70;52.30
63013;DHT22;62113;45.624;11.700;2023-06-01T03:47:00;21.80;52.50
63013;DHT22;62113;45.624;11.700;2023-06-01T03:49:26;21.80;52.40
63013;DHT22;62113;45.624;11.700;2023-06-01T03:51:51;21.80;52.70
63013;DHT22;62113;45.624;11.700;2023-06-01T03:54:17;21.80;52.50
63013;DHT22;62113;45.624;11.700;2023-06-01T03:56:42;21.80;52.60
63013;DHT22;62113;45.624;11.700;2023-06-01T03:59:08;21.80;52.50
63013;DHT22;62113;45.624;11.700;2023-06-01T04:01:35;21.80;52.50
63013;DHT22;62113;45.624;11.700;2023-06-01T04:04:01;21.80;52.50
63013;DHT22;62113;45.624;11.700;2023-06-01T04:06:29;21.90;52.90
63013;DHT22;62113;45.624;11.700;2023-06-01T04:08:55;21.90;52.30
63013;DHT22;62113;45.624;11.700;2023-06-01T04:11:22;22.00;52.40
63013;DHT22;62113;45.624;11.700;2023-06-01T04:13:48;22.00;52.40
63013;DHT22;62113;45.624;11.700;2023-06-01T04:16:14;22.00;52.60
63013;DHT22;62113;45.624;11.700;2023-06-01T04:18:40;22.00;52.20
63013;DHT22;62113;45.624;11.700;2023-06-01T04:21:05;22.10;52.30
63013;DHT22;62113;45.624;11.700;2023-06-01T04:23:32;22.10;52.30
63013;DHT22;62113;45.624;11.700;2023-06-01T04:25:58;22.20;52.40
63013;DHT22;62113;45.624;11.700;2023-06-01T04:28:25;22.20;52.30
63013;DHT22;62113;45.624;11.700;2023-06-01T04:30:51;22.20;52.80
63013;DHT22;62113;45.624;11.700;2023-06-01T04:33:19;22.30;52.80
63013;DHT22;62113;45.624;11.700;2023-06-01T04:35:45;22.30;52.00
63013;DHT22;62113;45.624;11.700;2023-06-01T04:38:10;22.50;52.10
63013;DHT22;62113;45.624;11.700;2023-06-01T04:40:36;22.60;51.70
63013;DHT22;62113;45.624;11.700;2023-06-01T04:43:02;22.70;51.60
63013;DHT22;62113;45.624;11.700;2023-06-01T04:45:28;22.80;51.20
63013;DHT22;62113;45.624;11.700;2023-06-01T04:47:59;23.00;50.80
63013;DHT22;62113;45.624;11.700;2023-06-01T04:50:24;23.20;50.80
63013;DHT22;62113;45.624;11.700;2023-06-01T04:52:51;23.60;49.80
63013;DHT22;62113;45.624;11.700;2023-06-01T04:55:17;24.20;49.60
63013;DHT22;62113;45.624;11.700;2023-06-01T04:57:42;24.80;48.50
63013;DHT22;62113;45.624;11.700;2023-06-01T05:00:11;25.10;47.60
63013;DHT22;62113;45.624;11.700;2023-06-01T05:02:41;25.00;47.10
63013;DHT22;62113;45.624;11.700;2023-06-01T05:05:08;25.00;47.30
63013;DHT22;62113;45.624;11.700;2023-06-01T05:07:33;24.70;47.30
63013;DHT22;62113;45.624;11.700;2023-06-01T05:09:59;24.70;47.50
63013;DHT22;62113;45.624;11.700;2023-06-01T05:12:29;24.50;47.70
63013;DHT22;62113;45.624;11.700;2023-06-01T05:14:55;24.50;47.90
63013;DHT22;62113;45.624;11.700;2023-06-01T05:17:21;24.40;48.00
63013;DHT22;62113;45.624;11.700;2023-06-01T05:19:46;24.40;48.10
63013;DHT22;62113;45.624;11.700;2023-06-01T05:22:12;24.40;48.10
63013;DHT22;62113;45.624;11.700;2023-06-01T05:24:37;24.40;48.10
63013;DHT22;62113;45.624;11.700;2023-06-01T05:27:03;24.40;48.30
63013;DHT22;62113;45.624;11.700;2023-06-01T05:29:29;24.40;48.40
63013;DHT22;62113;45.624;11.700;2023-06-01T05:31:54;24.40;48.40
63013;DHT22;62113;45.624;11.700;2023-06-01T05:34:20;24.50;48.30
63013;DHT22;62113;45.624;11.700;2023-06-01T05:36:46;24.50;48.10
63013;DHT22;62113;45.624;11.700;2023-06-01T05:39:11;24.60;48.10
63013;DHT22;62113;45.624;11.700;2023-06-01T05:41:37;24.70;48.10
63013;DHT22;62113;45.624;11.700;2023-06-01T05:44:03;24.70;48.20
63013;DHT22;62113;45.624;11.700;2023-06-01T05:46:28;24.80;48.00
63013;DHT22;62113;45.624;11.700;2023-06-01T05:48:54;24.90;48.00
63013;DHT22;62113;45.624;11.700;2023-06-01T05:51:20;25.00;47.90
63013;DHT22;62113;45.624;11.700;2023-06-01T05:53:46;25.20;47.90
63013;DHT22;62113;45.624;11.700;2023-06-01T05:56:11;25.30;48.10
63013;DHT22;62113;45.624;11.700;2023-06-01T05:58:37;25.40;47.70
63013;DHT22;62113;45.624;11.700;2023-06-01T06:01:03;25.60;47.30
63013;DHT22;62113;45.624;11.700;2023-06-01T06:03:28;25.70;47.20
63013;DHT22;62113;45.624;11.700;2023-06-01T06:05:54;25.80;46.90
63013;DHT22;62113;45.624;11.700;2023-06-01T06:08:20;26.00;46.60
63013;DHT22;62113;45.624;11.700;2023-06-01T06:10:45;26.20;46.50
63013;DHT22;62113;45.624;11.700;2023-06-01T06:13:11;26.40;46.20
63013;DHT22;62113;45.624;11.700;2023-06-01T06:15:36;26.70;45.90
63013;DHT22;62113;45.624;11.700;2023-06-01T06:18:02;27.10;45.60
63013;DHT22;62113;45.624;11.700;2023-06-01T06:20:28;27.50;45.00
63013;DHT22;62113;45.624;11.700;2023-06-01T06:22:53;28.30;43.90
63013;DHT22;62113;45.624;11.700;2023-06-01T06:25:19;29.70;41.70
63013;DHT22;62113;45.624;11.700;2023-06-01T06:27:45;31.30;38.60
63013;DHT22;62113;45.624;11.700;2023-06-01T06:30:12;33.00;36.90
63013;DHT22;62113;45.624;11.700;2023-06-01T06:32:37;34.40;33.50
63013;DHT22;62113;45.624;11.700;2023-06-01T06:35:03;35.90;32.50
63013;DHT22;62113;45.624;11.700;2023-06-01T06:37:29;37.10;30.70
63013;DHT22;62113;45.624;11.700;2023-06-01T06:39:55;38.20;29.50
63013;DHT22;62113;45.624;11.700;2023-06-01T06:42:20;38.90;28.10
63013;DHT22;62113;45.624;11.700;2023-06-01T06:44:46;39.90;27.60
63013;DHT22;62113;45.624;11.700;2023-06-01T06:47:11;40.80;26.60
63013;DHT22;62113;45.624;11.700;2023-06-01T06:49:40;41.50;26.10
63013;DHT22;62113;45.624;11.700;2023-06-01T06:52:08;42.00;25.60
63013;DHT22;62113;45.624;11.700;2023-06-01T06:54:34;42.50;25.00
63013;DHT22;62113;45.624;11.700;2023-06-01T06:57:00;43.00;24.50
63013;DHT22;62113;45.624;11.700;2023-06-01T06:59:26;43.50;23.90
63013;DHT22;62113;45.624;11.700;2023-06-01T07:01:51;43.90;23.40
63013;DHT22;62113;45.624;11.700;2023-06-01T07:04:16;44.30;23.00
63013;DHT22;62113;45.624;11.700;2023-06-01T07:06:42;44.70;22.70
63013;DHT22;62113;45.624;11.700;2023-06-01T07:09:08;45.00;22.10
63013;DHT22;62113;45.624;11.700;2023-06-01T07:11:34;45.40;22.00
63013;DHT22;62113;45.624;11.700;2023-06-01T07:14:00;45.70;21.70
63013;DHT22;62113;45.624;11.700;2023-06-01T07:16:25;46.00;21.20
63013;DHT22;62113;45.624;11.700;2023-06-01T07:18:51;46.40;21.00
63013;DHT22;62113;45.624;11.700;2023-06-01T07:21:17;46.60;20.70
63013;DHT22;62113;45.624;11.700;2023-06-01T07:23:44;46.90;20.20
63013;DHT22;62113;45.624;11.700;2023-06-01T07:26:09;47.20;20.00
63013;DHT22;62113;45.624;11.700;2023-06-01T07:28:35;47.60;19.70
63013;DHT22;62113;45.624;11.700;2023-06-01T07:31:00;47.90;19.30
63013;DHT22;62113;45.624;11.700;2023-06-01T07:33:26;48.10;19.10
63013;DHT22;62113;45.624;11.700;2023-06-01T07:35:51;48.40;18.90
63013;DHT22;62113;45.624;11.700;2023-06-01T07:38:18;48.50;18.80
63013;DHT22;62113;45.624;11.700;2023-06-01T07:40:45;48.70;18.50
63013;DHT22;62113;45.624;11.700;2023-06-01T07:43:11;49.00;18.30
63013;DHT22;62113;45.624;11.700;2023-06-01T07:45:36;49.20;18.00
63013;DHT22;62113;45.624;11.700;2023-06-01T07:48:02;49.60;17.80
63013;DHT22;62113;45.624;11.700;2023-06-01T07:50:28;49.90;17.50
63013;DHT22;62113;45.624;11.700;2023-06-01T07:52:56;50.10;17.40
63013;DHT22;62113;45.624;11.700;2023-06-01T07:55:23;50.10;16.30
63013;DHT22;62113;45.624;11.700;2023-06-01T07:57:48;49.60;16.00
63013;DHT22;62113;45.624;11.700;2023-06-01T08:00:14;49.70;16.40
63013;DHT22;62113;45.624;11.700;2023-06-01T08:02:42;50.10;16.40
63013;DHT22;62113;45.624;11.700;2023-06-01T08:05:08;50.20;16.20
63013;DHT22;62113;45.624;11.700;2023-06-01T08:07:35;50.40;16.20
63013;DHT22;62113;45.624;11.700;2023-06-01T08:10:01;50.20;15.90
63013;DHT22;62113;45.624;11.700;2023-06-01T08:12:27;50.10;15.60
63013;DHT22;62113;45.624;11.700;2023-06-01T08:14:53;49.70;14.60
63013;DHT22;62113;45.624;11.700;2023-06-01T08:17:18;49.40;14.80
63013;DHT22;62113;45.624;11.700;2023-06-01T08:19:44;48.70;15.70
63013;DHT22;62113;45.624;11.700;2023-06-01T08:22:10;47.60;16.00
63013;DHT22;62113;45.624;11.700;2023-06-01T08:24:37;46.40;16.80
63013;DHT22;62113;45.624;11.700;2023-06-01T08:27:15;45.10;17.70
63013;DHT22;62113;45.624;11.700;2023-06-01T08:29:41;43.70;18.50
63013;DHT22;62113;45.624;11.700;2023-06-01T08:32:06;41.70;19.70
63013;DHT22;62113;45.624;11.700;2023-06-01T08:34:32;40.50;20.80
63013;DHT22;62113;45.624;11.700;2023-06-01T08:36:57;39.30;22.00
63013;DHT22;62113;45.624;11.700;2023-06-01T08:39:23;38.20;22.70
63013;DHT22;62113;45.624;11.700;2023-06-01T08:42:01;37.00;23.70
63013;DHT22;62113;45.624;11.700;2023-06-01T08:44:28;35.70;25.40
63013;DHT22;62113;45.624;11.700;2023-06-01T08:47:00;34.70;26.30
63013;DHT22;62113;45.624;11.700;2023-06-01T08:49:26;34.30;26.80
63013;DHT22;62113;45.624;11.700;2023-06-01T08:51:52;34.00;27.80
63013;DHT22;62113;45.624;11.700;2023-06-01T08:54:20;33.60;28.10
63013;DHT22;62113;45.624;11.700;2023-06-01T08:56:46;33.20;28.70
63013;DHT22;62113;45.624;11.700;2023-06-01T08:59:11;32.90;29.30
63013;DHT22;62113;45.624;11.700;2023-06-01T09:01:38;32.50;30.10
63013;DHT22;62113;45.624;11.700;2023-06-01T09:04:04;32.30;30.70
63013;DHT22;62113;45.624;11.700;2023-06-01T09:06:30;32.20;30.10
63013;DHT22;62113;45.624;11.700;2023-06-01T09:08:56;32.10;29.90
63013;DHT22;62113;45.624;11.700;2023-06-01T09:11:21;31.70;31.60
63013;DHT22;62113;45.624;11.700;2023-06-01T09:13:47;31.40;31.50
63013;DHT22;62113;45.624;11.700;2023-06-01T09:16:12;31.30;31.50
63013;DHT22;62113;45.624;11.700;2023-06-01T09:18:53;31.30;31.50
63013;DHT22;62113;45.624;11.700;2023-06-01T09:21:20;31.40;31.30
63013;DHT22;62113;45.624;11.700;2023-06-01T09:23:46;31.70;31.50
63013;DHT22;62113;45.624;11.700;2023-06-01T09:26:13;31.90;32.10
63013;DHT22;62113;45.624;11.700;2023-06-01T09:28:51;31.90;31.80
63013;DHT22;62113;45.624;11.700;2023-06-01T09:34:01;32.00;31.20
63013;DHT22;62113;45.624;11.700;2023-06-01T09:36:27;32.00;31.10
63013;DHT22;62113;45.624;11.700;2023-06-01T09:41:55;32.20;30.90
63013;DHT22;62113;45.624;11.700;2023-06-01T09:46:53;32.00;30.90
63013;DHT22;62113;45.624;11.700;2023-06-01T09:49:19;31.80;30.90
63013;DHT22;62113;45.624;11.700;2023-06-01T09:51:46;31.70;31.60
63013;DHT22;62113;45.624;11.700;2023-06-01T09:54:21;31.70;31.10
63013;DHT22;62113;45.624;11.700;2023-06-01T09:56:47;31.70;31.70
63013;DHT22;62113;45.624;11.700;2023-06-01T09:59:12;31.60;31.60
63013;DHT22;62113;45.624;11.700;2023-06-01T10:01:39;31.60;32.00
63013;DHT22;62113;45.624;11.700;2023-06-01T10:04:06;31.70;32.00
63013;DHT22;62113;45.624;11.700;2023-06-01T10:06:36;31.80;31.70
63013;DHT22;62113;45.624;11.700;2023-06-01T10:09:03;31.90;31.60
63013;DHT22;62113;45.624;11.700;2023-06-01T10:11:30;31.90;31.10
63013;DHT22;62113;45.624;11.700;2023-06-01T10:13:57;31.80;31.10
63013;DHT22;62113;45.624;11.700;2023-06-01T10:16:23;31.80;31.00
63013;DHT22;62113;45.624;11.700;2023-06-01T10:18:48;31.80;31.10
63013;DHT22;62113;45.624;11.700;2023-06-01T10:21:16;31.90;31.00
63013;DHT22;62113;45.624;11.700;2023-06-01T10:23:42;32.10;31.00
63013;DHT22;62113;45.624;11.700;2023-06-01T10:26:12;32.10;30.90
63013;DHT22;62113;45.624;11.700;2023-06-01T10:28:40;32.10;30.70
63013;DHT22;62113;45.624;11.700;2023-06-01T10:33:53;32.00;30.70
63013;DHT22;62113;45.624;11.700;2023-06-01T10:36:19;31.90;31.10
63013;DHT22;62113;45.624;11.700;2023-06-01T10:38:44;31.90;30.80
63013;DHT22;62113;45.624;11.700;2023-06-01T10:41:29;32.00;31.20
63013;DHT22;62113;45.624;11.700;2023-06-01T10:43:55;31.90;31.50
63013;DHT22;62113;45.624;11.700;2023-06-01T10:46:33;31.80;31.50
63013;DHT22;62113;45.624;11.700;2023-06-01T10:48:59;31.80;31.60
63013;DHT22;62113;45.624;11.700;2023-06-01T10:51:24;31.70;31.50
63013;DHT22;62113;45.624;11.700;2023-06-01T10:53:51;31.70;32.10
63013;DHT22;62113;45.624;11.700;2023-06-01T10:56:18;31.70;32.30
63013;DHT22;62113;45.624;11.700;2023-06-01T10:58:46;31.60;32.20
63013;DHT22;62113;45.624;11.700;2023-06-01T11:01:18;31.50;32.10
63013;DHT22;62113;45.624;11.700;2023-06-01T11:03:44;31.40;32.40
63013;DHT22;62113;45.624;11.700;2023-06-01T11:06:29;31.30;32.60
63013;DHT22;62113;45.624;11.700;2023-06-01T11:08:57;31.30;32.70
63013;DHT22;62113;45.624;11.700;2023-06-01T11:11:23;31.30;32.70
63013;DHT22;62113;45.624;11.700;2023-06-01T11:14:05;31.30;32.60
63013;DHT22;62113;45.624;11.700;2023-06-01T11:16:31;31.40;32.80
63013;DHT22;62113;45.624;11.700;2023-06-01T11:18:57;31.40;32.20
63013;DHT22;62113;45.624;11.700;2023-06-01T11:21:36;31.20;32.00
63013;DHT22;62113;45.624;11.700;2023-06-01T11:31:38;31.20;32.60
63013;DHT22;62113;45.624;11.700;2023-06-01T11:34:05;31.20;32.70
63013;DHT22;62113;45.624;11.700;2023-06-01T11:36:35;31.10;32.70
63013;DHT22;62113;45.624;11.700;2023-06-01T11:39:02;31.20;32.90
63013;DHT22;62113;45.624;11.700;2023-06-01T11:41:27;31.30;32.90
63013;DHT22;62113;45.624;11.700;2023-06-01T11:43:53;31.20;32.70
63013;DHT22;62113;45.624;11.700;2023-06-01T11:46:19;31.30;32.50
63013;DHT22;62113;45.624;11.700;2023-06-01T11:48:57;31.30;32.50
63013;DHT22;62113;45.624;11.700;2023-06-01T11:51:27;31.30;33.00
63013;DHT22;62113;45.624;11.700;2023-06-01T11:53:52;31.30;32.50
63013;DHT22;62113;45.624;11.700;2023-06-01T11:56:20;31.40;32.40
63013;DHT22;62113;45.624;11.700;2023-06-01T11:58:46;31.50;32.30
63013;DHT22;62113;45.624;11.700;2023-06-01T12:01:13;31.50;32.20
63013;DHT22;62113;45.624;11.700;2023-06-01T12:03:45;31.60;32.50
63013;DHT22;62113;45.624;11.700;2023-06-01T12:06:18;31.50;32.50
63013;DHT22;62113;45.624;11.700;2023-06-01T12:08:43;31.40;33.50
63013;DHT22;62113;45.624;11.700;2023-06-01T12:11:09;31.30;33.60
63013;DHT22;62113;45.624;11.700;2023-06-01T12:13:37;31.20;33.00
63013;DHT22;62113;45.624;11.700;2023-06-01T12:16:02;31.20;32.50
63013;DHT22;62113;45.624;11.700;2023-06-01T12:18:28;31.20;32.70
63013;DHT22;62113;45.624;11.700;2023-06-01T12:20:55;31.20;32.80
63013;DHT22;62113;45.624;11.700;2023-06-01T12:23:21;31.30;32.00
63013;DHT22;62113;45.624;11.700;2023-06-01T12:25:53;31.20;32.00
63013;DHT22;62113;45.624;11.700;2023-06-01T12:28:19;31.30;32.40
63013;DHT22;62113;45.624;11.700;2023-06-01T12:30:45;31.30;32.50
63013;DHT22;62113;45.624;11.700;2023-06-01T12:33:33;31.30;32.40
63013;DHT22;62113;45.624;11.700;2023-06-01T12:35:59;31.40;32.90
63013;DHT22;62113;45.624;11.700;2023-06-01T12:38:24;31.30;32.00
63013;DHT22;62113;45.624;11.700;2023-06-01T12:41:06;31.20;32.50
63013;DHT22;62113;45.624;11.700;2023-06-01T12:43:35;31.20;32.60
63013;DHT22;62113;45.624;11.700;2023-06-01T12:46:01;31.20;32.90
63013;DHT22;62113;45.624;11.700;2023-06-01T12:48:36;31.20;33.20
63013;DHT22;62113;45.624;11.700;2023-06-01T12:51:02;31.20;33.40
63013;DHT22;62113;45.624;11.700;2023-06-01T12:53:28;31.20;33.70
63013;DHT22;62113;45.624;11.700;2023-06-01T12:55:54;31.20;33.40
63013;DHT22;62113;45.624;11.700;2023-06-01T12:58:20;31.20;33.40
63013;DHT22;62113;45.624;11.700;2023-06-01T13:00:45;31.10;32.90
63013;DHT22;62113;45.624;11.700;2023-06-01T13:03:11;31.10;32.90
63013;DHT22;62113;45.624;11.700;2023-06-01T13:05:36;31.00;32.80
63013;DHT22;62113;45.624;11.700;2023-06-01T13:08:02;31.00;33.10
63013;DHT22;62113;45.624;11.700;2023-06-01T13:10:28;31.00;33.90
63013;DHT22;62113;45.624;11.700;2023-06-01T13:12:54;30.80;33.80
63013;DHT22;62113;45.624;11.700;2023-06-01T13:15:21;30.90;33.60
63013;DHT22;62113;45.624;11.700;2023-06-01T13:17:46;30.80;33.90
63013;DHT22;62113;45.624;11.700;2023-06-01T13:20:12;30.70;33.90
63013;DHT22;62113;45.624;11.700;2023-06-01T13:22:41;30.80;33.60
63013;DHT22;62113;45.624;11.700;2023-06-01T13:25:07;30.70;34.10
63013;DHT22;62113;45.624;11.700;2023-06-01T13:27:34;30.80;34.10
63013;DHT22;62113;45.624;11.700;2023-06-01T13:29:59;30.80;34.80
63013;DHT22;62113;45.624;11.700;2023-06-01T13:32:26;30.70;33.60
63013;DHT22;62113;45.624;11.700;2023-06-01T13:34:52;30.70;34.10
63013;DHT22;62113;45.624;11.700;2023-06-01T13:37:18;30.90;34.10
63013;DHT22;62113;45.624;11.700;2023-06-01T13:39:43;31.00;34.80
63013;DHT22;62113;45.624;11.700;2023-06-01T13:42:09;31.00;35.00
63013;DHT22;62113;45.624;11.700;2023-06-01T13:44:34;31.10;34.50
63013;DHT22;62113;45.624;11.700;2023-06-01T13:47:00;31.00;34.50
63013;DHT22;62113;45.624;11.700;2023-06-01T13:49:25;31.00;33.80
63013;DHT22;62113;45.624;11.700;2023-06-01T13:51:52;31.00;33.80
63013;DHT22;62113;45.624;11.700;2023-06-01T13:54:18;31.00;34.00
63013;DHT22;62113;45.624;11.700;2023-06-01T13:56:43;30.80;33.80
63013;DHT22;62113;45.624;11.700;2023-06-01T13:59:09;30.80;34.20
63013;DHT22;62113;45.624;11.700;2023-06-01T14:01:34;30.70;33.80
63013;DHT22;62113;45.624;11.700;2023-06-01T14:04:00;30.70;33.90
63013;DHT22;62113;45.624;11.700;2023-06-01T14:06:26;30.70;33.90
63013;DHT22;62113;45.624;11.700;2023-06-01T14:08:51;30.70;34.00
63013;DHT22;62113;45.624;11.700;2023-06-01T14:11:17;30.70;33.70
63013;DHT22;62113;45.624;11.700;2023-06-01T14:13:42;30.70;33.90
63013;DHT22;62113;45.624;11.700;2023-06-01T14:16:08;30.70;34.20
63013;DHT22;62113;45.624;11.700;2023-06-01T14:18:33;30.70;35.40
63013;DHT22;62113;45.624;11.700;2023-06-01T14:20:59;30.60;33.60
63013;DHT22;62113;45.624;11.700;2023-06-01T14:23:25;30.50;33.40
63013;DHT22;62113;45.624;11.700;2023-06-01T14:25:51;30.40;33.80
63013;DHT22;62113;45.624;11.700;2023-06-01T14:28:16;30.30;32.80
63013;DHT22;62113;45.624;11.700;2023-06-01T14:30:42;30.30;33.60
63013;DHT22;62113;45.624;11.700;2023-06-01T14:33:07;30.40;33.80
63013;DHT22;62113;45.624;11.700;2023-06-01T14:35:33;30.40;33.20
63013;DHT22;62113;45.624;11.700;2023-06-01T14:37:58;30.40;33.00
63013;DHT22;62113;45.624;11.700;2023-06-01T14:40:24;30.40;33.10
63013;DHT22;62113;45.624;11.700;2023-06-01T14:42:50;30.40;33.20
63013;DHT22;62113;45.624;11.700;2023-06-01T14:45:15;30.40;33.30
63013;DHT22;62113;45.624;11.700;2023-06-01T14:47:41;30.40;34.20
63013;DHT22;62113;45.624;11.700;2023-06-01T14:50:07;30.50;33.40
63013;DHT22;62113;45.624;11.700;2023-06-01T14:52:33;30.40;33.30
63013;DHT22;62113;45.624;11.700;2023-06-01T14:54:58;30.40;33.80
63013;DHT22;62113;45.624;11.700;2023-06-01T14:57:24;30.40;33.50
63013;DHT22;62113;45.624;11.700;2023-06-01T14:59:49;30.30;33.70
63013;DHT22;62113;45.624;11.700;2023-06-01T15:02:15;30.30;34.70
63013;DHT22;62113;45.624;11.700;2023-06-01T15:04:40;30.30;33.70
63013;DHT22;62113;45.624;11.700;2023-06-01T15:07:06;30.30;33.90
63013;DHT22;62113;45.624;11.700;2023-06-01T15:09:31;30.40;35.00
63013;DHT22;62113;45.624;11.700;2023-06-01T15:11:57;30.40;34.70
63013;DHT22;62113;45.624;11.700;2023-06-01T15:14:22;30.40;34.60
63013;DHT22;62113;45.624;11.700;2023-06-01T15:16:48;30.40;34.30
63013;DHT22;62113;45.624;11.700;2023-06-01T15:19:13;30.30;34.10
63013;DHT22;62113;45.624;11.700;2023-06-01T15:21:39;30.40;35.30
63013;DHT22;62113;45.624;11.700;2023-06-01T15:24:04;30.30;35.20
63013;DHT22;62113;45.624;11.700;2023-06-01T15:26:30;30.30;34.50
63013;DHT22;62113;45.624;11.700;2023-06-01T15:28:56;30.30;34.60
63013;DHT22;62113;45.624;11.700;2023-06-01T15:31:22;30.20;34.70
63013;DHT22;62113;45.624;11.700;2023-06-01T15:33:47;30.20;34.60
63013;DHT22;62113;45.624;11.700;2023-06-01T15:36:13;30.30;34.60
63013;DHT22;62113;45.624;11.700;2023-06-01T15:38:39;30.20;34.70
63013;DHT22;62113;45.624;11.700;2023-06-01T15:41:05;30.20;35.00